Time;durP1;ratioP1;P1;durP2;ratioP2;P2;SDS_P1;SDS_P2;PMS_P1;PMS_P2;Temp;Humidity;BMP_temperature;BMP_pressure;BME280_temperature;BME280_humidity;BME280_pressure;Samples;Min_cycle;Max_cycle;Signal;HPM_P1;HPM_P2
2022/06/16 00:00:10;;;;;;;;;;;;;;;21.04;nan;100405.81;4989611;28;19948;-71
2022/06/16 00:02:39;;;;;;;;;;;;;;;20.98;nan;100408.34;4989729;28;19921;-70
2022/06/16 00:05:05;;;;;;;;;;;;;;;20.91;nan;100406.78;4989959;28;20353;-70
2022/06/16 00:07:30;;;;;;;;;;;;;;;20.85;nan;100399.59;4990365;28;19917;-70
2022/06/16 00:09:56;;;;;;;;;;;;;;;20.74;nan;100398.47;4990129;28;19925;-70
2022/06/16 00:12:21;;;;;;;2.43;1.40;;;;;;;20.65;nan;100395.25;4989052;28;19957;-72
2022/06/16 00:14:46;;;;;;;3.00;1.90;;;;;;;20.51;nan;100407.94;4991426;28;20129;-72
2022/06/16 00:17:11;;;;;;;;;;;;;;;20.31;nan;100409.97;4999108;28;20034;-70
2022/06/16 00:19:36;;;;;;;;;;;;;;;20.13;nan;100414.22;4989827;28;19922;-70
2022/06/16 00:22:02;;;;;;;;;;;;;;;19.99;nan;100401.13;4989536;28;19975;-71
2022/06/16 00:24:27;;;;;;;;;;;;;;;19.89;nan;100405.09;4989943;28;19914;-70
2022/06/16 00:26:54;;;;;;;;;;;;;;;19.82;nan;100409.69;4990279;28;19914;-70
2022/06/16 00:29:19;;;;;;;2.30;1.50;;;;;;;19.88;nan;100403.47;4991839;28;19929;-72
2022/06/16 00:31:44;;;;;;;2.13;1.52;;;;;;;19.88;nan;100403.47;4993172;28;20030;-72
2022/06/16 00:34:10;;;;;;;3.70;1.65;;;;;;;19.84;nan;100399.56;4992712;28;20407;-72
2022/06/16 00:36:37;;;;;;;2.28;1.30;;;;;;;19.75;nan;100403.53;4997980;28;20053;-72
2022/06/16 00:39:03;;;;;;;1.88;1.30;;;;;;;19.65;nan;100398.59;4995827;28;20038;-72
2022/06/16 00:41:28;;;;;;;1.75;1.17;;;;;;;19.60;nan;100397.59;4993069;28;20518;-72
2022/06/16 00:43:59;;;;;;;2.65;1.50;;;;;;;19.52;nan;100406.69;5000205;28;20112;-72
2022/06/16 00:46:24;;;;;;;1.50;1.05;;;;;;;19.43;nan;100405.31;4992457;28;20125;-72
2022/06/16 00:48:55;;;;;;;1.55;1.17;;;;;;;19.36;nan;100408.03;4993029;28;20034;-72
2022/06/16 00:51:37;;;;;;;2.13;1.48;;;;;;;19.27;nan;100402.06;4992701;28;20046;-72
2022/06/16 00:54:28;;;;;;;2.42;1.60;;;;;;;19.22;nan;100388.47;4992149;28;20069;-73
2022/06/16 00:56:59;;;;;;;2.60;1.67;;;;;;;19.20;nan;100379.81;4992410;28;20070;-72
2022/06/16 00:59:25;;;;;;;2.38;1.70;;;;;;;19.16;nan;100378.59;4988468;28;20030;-72
2022/06/16 01:01:51;;;;;;;3.42;1.77;;;;;;;19.15;nan;100376.97;4997341;28;20183;-72
2022/06/16 01:07:03;;;;;;;2.45;1.50;;;;;;;19.12;nan;100372.03;4992965;28;20065;-72
2022/06/16 01:09:33;;;;;;;2.20;1.42;;;;;;;19.04;nan;100372.25;4971459;28;20035;-72
2022/06/16 01:15:11;;;;;;;1.70;1.20;;;;;;;18.82;nan;100375.19;4982838;28;20065;-73
2022/06/16 01:17:55;;;;;;;2.13;1.50;;;;;;;18.72;nan;100366.75;4993525;28;20054;-73
2022/06/16 01:20:33;;;;;;;2.20;1.27;;;;;;;18.64;nan;100359.75;5000016;28;20145;-73
2022/06/16 01:23:20;;;;;;;1.88;1.20;;;;;;;18.60;nan;100349.66;4992315;28;20043;-73
2022/06/16 01:25:53;;;;;;;2.10;1.30;;;;;;;18.67;nan;100350.47;4992305;28;20499;-73
2022/06/16 01:28:30;;;;;;;1.95;1.58;;;;;;;18.77;nan;100347.41;4992132;28;20077;-73
2022/06/16 01:31:13;;;;;;;2.65;1.55;;;;;;;18.73;nan;100349.63;4992015;28;20034;-73
2022/06/16 01:33:50;;;;;;;2.15;1.50;;;;;;;18.63;nan;100360.78;4991753;28;20035;-73
2022/06/16 01:36:20;;;;;;;2.38;1.70;;;;;;;18.54;nan;100362.03;4993644;28;20043;-73
2022/06/16 01:39:10;;;;;;;1.90;1.40;;;;;;;18.42;nan;100359.19;4997319;28;20038;-73
2022/06/16 01:41:42;;;;;;;2.30;1.50;;;;;;;18.35;nan;100358.34;4991333;28;20035;-72
2022/06/16 01:44:18;;;;;;;3.05;1.20;;;;;;;18.32;nan;100358.75;4998231;28;20069;-73
2022/06/16 01:46:47;;;;;;;3.08;1.20;;;;;;;18.26;nan;100362.28;4992276;28;20452;-73
2022/06/16 01:49:18;;;;;;;1.85;1.30;;;;;;;18.19;nan;100359.59;4991781;28;20559;-72
2022/06/16 01:51:56;;;;;;;2.92;1.10;;;;;;;18.14;nan;100366.56;4991731;28;20045;-73
2022/06/16 01:54:29;;;;;;;1.80;1.20;;;;;;;18.06;nan;100362.25;4991138;28;20033;-73
2022/06/16 01:57:00;;;;;;;1.73;1.20;;;;;;;18.01;nan;100356.69;4992256;28;20037;-73
2022/06/16 01:59:56;;;;;;;1.95;1.40;;;;;;;17.92;nan;100357.91;4984197;28;20037;-73
2022/06/16 02:02:24;;;;;;;2.17;1.60;;;;;;;17.85;nan;100365.91;4973425;28;20042;-73
2022/06/16 02:05:36;;;;;;;2.03;1.55;;;;;;;17.74;nan;100364.66;4991891;28;20066;-72
2022/06/16 02:08:13;;;;;;;3.08;1.90;;;;;;;17.65;nan;100371.22;4974165;28;20048;-73
2022/06/16 02:10:43;;;;;;;2.72;1.85;;;;;;;17.58;nan;100371.19;4989998;28;20117;-72
2022/06/16 02:13:12;;;;;;;3.10;1.80;;;;;;;17.52;nan;100374.69;4971427;28;20035;-73
2022/06/16 02:15:51;;;;;;;1.88;1.38;;;;;;;17.44;nan;100380.19;4993276;28;20121;-72
2022/06/16 02:18:21;;;;;;;3.25;1.70;;;;;;;17.39;nan;100382.66;4998674;28;20042;-73
2022/06/16 02:21:06;;;;;;;;;;;;;;;17.31;nan;100393.53;4991737;28;20031;-72
2022/06/16 02:23:32;;;;;;;;;;;;;;;17.24;nan;100390.00;4990759;28;20034;-73
2022/06/16 02:25:57;;;;;;;;;;;;;;;17.17;nan;100392.63;4992099;28;20414;-73
2022/06/16 02:28:23;;;;;;;;;;;;;;;17.15;nan;100392.00;4991144;28;20278;-73
2022/06/16 02:31:09;;;;;;;;;;;;;;;17.16;nan;100399.81;4991900;28;20058;-72
2022/06/16 02:33:54;;;;;;;2.40;1.70;;;;;;;17.19;nan;100403.94;4989367;28;20048;-73
2022/06/16 02:36:53;;;;;;;2.17;1.58;;;;;;;17.38;nan;100402.38;4991975;28;20401;-72
2022/06/16 02:39:35;;;;;;;2.40;1.52;;;;;;;17.49;nan;100412.50;4991780;28;20038;-73
2022/06/16 02:42:29;;;;;;;2.63;1.70;;;;;;;17.58;nan;100413.97;4990813;28;20496;-73
2022/06/16 02:45:16;;;;;;;3.65;2.17;;;;;;;17.68;nan;100423.47;4987131;28;20111;-72
2022/06/16 02:47:48;;;;;;;3.17;2.08;;;;;;;17.73;nan;100415.66;4990909;28;20030;-72
2022/06/16 02:50:35;;;;;;;4.32;2.30;;;;;;;17.79;nan;100417.53;4973205;28;20050;-73
2022/06/16 02:53:07;;;;;;;3.20;2.40;;;;;;;17.84;nan;100412.44;4990270;28;20047;-73
2022/06/16 02:55:42;;;;;;;4.10;2.20;;;;;;;17.78;nan;100414.03;4991188;28;20041;-72
2022/06/16 02:58:11;;;;;;;2.92;2.28;;;;;;;17.76;nan;100405.41;4990730;28;20503;-73
2022/06/16 03:00:41;;;;;;;5.45;2.15;;;;;;;17.75;nan;100408.25;4996386;28;20041;-73
2022/06/16 03:03:15;;;;;;;3.58;2.50;;;;;;;17.78;nan;100408.69;4992834;28;20169;-73
2022/06/16 03:05:41;;;;;;;3.95;2.33;;;;;;;17.83;nan;100405.44;4990613;28;20121;-73
2022/06/16 03:08:06;;;;;;;3.42;2.00;;;;;;;17.83;nan;100386.72;4990079;28;20122;-72
2022/06/16 03:13:15;;;;;;;4.45;2.45;;;;;;;17.85;nan;100378.47;5000242;28;20100;-73
2022/06/16 03:15:40;;;;;;;3.03;2.13;;;;;;;17.87;nan;100379.09;4998578;28;20034;-72
2022/06/16 03:18:06;;;;;;;4.60;2.37;;;;;;;17.88;nan;100388.78;4998916;28;20034;-73
2022/06/16 03:20:31;;;;;;;2.50;1.75;;;;;;;17.86;nan;100391.66;4990464;28;20634;-73
2022/06/16 03:22:56;;;;;;;3.33;1.90;;;;;;;17.87;nan;100390.63;4997975;28;20038;-72
2022/06/16 03:25:22;;;;;;;3.80;2.10;;;;;;;17.91;nan;100388.38;4990373;28;20034;-73
2022/06/16 03:27:47;;;;;;;3.15;2.20;;;;;;;17.93;nan;100392.50;4990426;28;20791;-73
2022/06/16 03:30:13;;;;;;;3.20;2.30;;;;;;;17.94;nan;100390.63;4989510;28;20045;-73
2022/06/16 03:32:38;;;;;;;3.20;2.20;;;;;;;17.95;nan;100387.78;4989924;28;20049;-73
2022/06/16 03:35:04;;;;;;;4.55;2.00;;;;;;;17.97;nan;100384.88;4990214;28;20069;-73
2022/06/16 03:37:29;;;;;;;3.83;2.40;;;;;;;17.96;nan;100383.25;4997963;28;20570;-72
2022/06/16 03:39:54;;;;;;;4.03;2.42;;;;;;;17.98;nan;100386.53;4972919;28;20077;-73
2022/06/16 03:42:19;;;;;;;3.00;2.22;;;;;;;17.98;nan;100394.56;4989802;28;20026;-72
2022/06/16 03:44:45;;;;;;;2.80;1.92;;;;;;;17.96;nan;100410.81;4995228;28;20444;-72
2022/06/16 03:47:10;;;;;;;2.20;1.80;;;;;;;17.94;nan;100420.88;4989856;28;20380;-72
2022/06/16 03:49:35;;;;;;;2.38;1.70;;;;;;;17.93;nan;100421.09;4990164;28;20165;-72
2022/06/16 03:52:00;;;;;;;3.23;1.90;;;;;;;17.94;nan;100420.06;4989572;28;20403;-72
2022/06/16 03:54:26;;;;;;;3.17;2.20;;;;;;;18.00;nan;100419.28;4989479;28;20363;-72
2022/06/16 03:56:51;;;;;;;2.72;1.98;;;;;;;18.03;nan;100433.03;4989863;28;20034;-72
2022/06/16 03:59:21;;;;;;;2.92;2.03;;;;;;;18.08;nan;100432.44;4990153;28;20031;-72
2022/06/16 04:01:46;;;;;;;3.13;2.08;;;;;;;18.09;nan;100434.09;4989556;28;20034;-72
2022/06/16 04:04:12;;;;;;;3.50;2.22;;;;;;;18.09;nan;100430.59;4997689;28;20027;-72
2022/06/16 04:06:37;;;;;;;3.17;1.93;;;;;;;18.04;nan;100434.72;4994233;28;20416;-72
2022/06/16 04:09:04;;;;;;;2.40;1.80;;;;;;;18.00;nan;100440.66;4993787;28;20278;-72
2022/06/16 04:11:30;;;;;;;3.40;2.03;;;;;;;17.91;nan;100441.88;4993737;28;20361;-72
2022/06/16 04:14:00;;;;;;;3.25;2.42;;;;;;;17.81;nan;100445.75;4993832;28;20129;-72
2022/06/16 04:16:26;;;;;;;3.67;2.45;;;;;;;17.72;nan;100441.59;4995522;28;20474;-72
2022/06/16 04:18:51;;;;;;;2.83;2.00;;;;;;;17.68;nan;100429.63;4998130;28;20491;-72
2022/06/16 04:21:17;;;;;;;3.17;1.90;;;;;;;17.67;nan;100437.88;4993507;28;20138;-72
2022/06/16 04:23:43;;;;;;;3.00;1.95;;;;;;;17.68;nan;100439.50;4972916;28;20027;-72
2022/06/16 04:26:08;;;;;;;;;;;;;;;17.70;nan;100445.47;4991272;28;20030;-72
2022/06/16 04:28:33;;;;;;;2.70;2.00;;;;;;;17.78;nan;100446.13;4993602;28;19918;-72
2022/06/16 04:30:59;;;;;;;2.72;1.98;;;;;;;17.83;nan;100448.25;4993840;28;20305;-72
2022/06/16 04:33:25;;;;;;;2.17;1.63;;;;;;;17.87;nan;100459.34;4992990;28;20112;-72
2022/06/16 04:35:50;;;;;;;2.53;1.77;;;;;;;17.92;nan;100452.34;4993101;28;20038;-72
2022/06/16 04:38:16;;;;;;;2.78;1.90;;;;;;;18.00;nan;100465.56;5000613;28;20499;-72
2022/06/16 04:40:41;;;;;;;2.65;1.65;;;;;;;18.06;nan;100460.44;4993487;28;20113;-72
2022/06/16 04:43:06;;;;;;;2.25;1.60;;;;;;;18.08;nan;100463.72;4999924;28;20491;-72
2022/06/16 04:45:32;;;;;;;2.10;1.48;;;;;;;18.12;nan;100467.66;4993128;28;20041;-72
2022/06/16 04:47:57;;;;;;;2.17;1.50;;;;;;;18.15;nan;100468.06;4993143;28;20041;-72
2022/06/16 04:50:22;;;;;;;2.03;1.37;;;;;;;18.17;nan;100463.34;4992378;28;20060;-72
2022/06/16 04:52:48;;;;;;;1.83;1.35;;;;;;;18.21;nan;100467.28;4992789;28;20285;-72
2022/06/16 04:55:15;;;;;;;2.13;1.50;;;;;;;18.24;nan;100471.38;4975381;28;20507;-72
2022/06/16 04:57:40;;;;;;;3.22;1.70;;;;;;;18.29;nan;100463.56;4993209;28;20129;-72
2022/06/16 05:00:07;;;;;;;2.17;1.70;;;;;;;18.36;nan;100474.28;5000526;28;20034;-72
2022/06/16 05:02:32;;;;;;;2.17;1.67;;;;;;;18.42;nan;100471.63;4992458;28;20026;-72
2022/06/16 05:04:57;;;;;;;2.90;1.80;;;;;;;18.50;nan;100475.94;4991691;28;20041;-72
2022/06/16 05:07:23;;;;;;;3.40;2.28;;;;;;;18.57;nan;100474.09;4992793;28;20062;-72
2022/06/16 05:09:48;;;;;;;3.22;2.00;;;;;;;18.66;nan;100477.38;4992644;28;20048;-72
2022/06/16 05:12:14;;;;;;;2.83;2.10;;;;;;;18.72;nan;100479.25;4991692;28;20065;-72
2022/06/16 05:14:39;;;;;;;3.70;2.20;;;;;;;18.81;nan;100487.94;4992983;28;20038;-72
2022/06/16 05:17:05;;;;;;;3.33;2.33;;;;;;;18.86;nan;100488.94;5001431;28;20038;-72
2022/06/16 05:19:31;;;;;;;2.63;1.92;;;;;;;18.96;nan;100487.72;4992285;28;20039;-72
2022/06/16 05:22:00;;;;;;;4.32;2.20;;;;;;;19.03;nan;100501.94;4992602;28;20565;-73
2022/06/16 05:24:25;;;;;;;3.00;2.20;;;;;;;19.09;nan;100496.56;4992106;28;20048;-73
2022/06/16 05:26:51;;;;;;;3.40;2.08;;;;;;;19.19;nan;100504.19;4992639;28;20113;-72
2022/06/16 05:29:16;;;;;;;3.45;2.35;;;;;;;19.28;nan;100505.59;4992362;28;20084;-72
2022/06/16 05:31:41;;;;;;;2.95;2.30;;;;;;;19.34;nan;100511.16;4992556;28;20030;-72
2022/06/16 05:34:06;;;;;;;3.20;2.33;;;;;;;19.41;nan;100533.41;4991210;28;20615;-72
2022/06/16 05:36:32;;;;;;;5.03;2.13;;;;;;;19.48;nan;100535.03;4996646;28;20052;-72
2022/06/16 05:38:57;;;;;;;3.78;2.42;;;;;;;19.60;nan;100537.91;4995992;28;20082;-72
2022/06/16 05:41:22;;;;;;;4.63;2.63;;;;;;;19.78;nan;100547.97;4992004;28;20053;-72
2022/06/16 05:43:48;;;;;;;2.93;2.30;;;;;;;19.99;nan;100544.19;4999388;28;20034;-73
2022/06/16 05:46:18;;;;;;;2.80;2.10;;;;;;;20.24;nan;100557.72;4991720;28;20274;-72
2022/06/16 05:48:44;;;;;;;3.40;2.42;;;;;;;20.45;nan;100556.56;4992120;28;20534;-73
2022/06/16 05:51:13;;;;;;;4.32;2.70;;;;;;;20.82;nan;100556.72;4991681;28;20417;-72
2022/06/16 05:53:39;;;;;;;5.57;2.90;;;;;;;21.19;nan;100560.34;4992238;28;20507;-72
2022/06/16 05:56:04;;;;;;;4.43;2.85;;;;;;;21.56;nan;100563.13;4992349;28;20073;-73
2022/06/16 05:58:30;;;;;;;3.13;2.40;;;;;;;22.05;nan;100571.25;4991455;28;20091;-72
2022/06/16 06:00:55;;;;;;;2.78;1.92;;;;;;;22.55;nan;100578.28;4991716;28;20045;-73
2022/06/16 06:03:21;;;;;;;3.20;1.90;;;;;;;23.13;nan;100576.78;4990047;28;20493;-73
2022/06/16 06:05:46;;;;;;;1.80;1.30;;;;;;;23.78;nan;100579.34;4990986;28;20406;-73
2022/06/16 06:16:28;;;;;;;2.53;1.80;;;;;;;25.33;nan;100579.19;4997415;28;20037;-74
2022/06/16 06:18:54;;;;;;;3.00;2.03;;;;;;;25.82;nan;100583.91;4995516;28;20557;-73
2022/06/16 06:21:57;;;;;;;3.28;2.00;;;;;;;26.05;nan;100578.28;4973848;28;20125;-73
2022/06/16 06:24:05;;;;;;;3.45;2.15;;;;;;;26.36;nan;100584.03;4990722;28;20085;-73
2022/06/16 06:26:30;;;;;;;3.75;1.80;;;;;;;26.53;nan;100581.22;4990448;28;20034;-73
2022/06/16 06:28:56;;;;;;;3.13;1.80;;;;;;;26.82;nan;100581.78;4991424;28;20027;-73
2022/06/16 06:31:21;;;;;;;3.03;1.67;;;;;;;27.18;nan;100579.34;4991244;28;20026;-74
2022/06/16 06:33:46;;;;;;;1.65;1.40;;;;;;;27.54;nan;100583.09;4990639;28;20058;-73
2022/06/16 06:36:12;;;;;;;1.80;1.40;;;;;;;27.95;nan;100594.19;5000311;28;20041;-74
2022/06/16 06:38:37;;;;;;;3.55;1.70;;;;;;;28.12;nan;100596.69;4997212;28;19913;-74
2022/06/16 06:41:04;;;;;;;2.73;1.80;;;;;;;28.12;nan;100604.84;4991407;28;20399;-74
2022/06/16 06:43:29;;;;;;;2.67;1.90;;;;;;;28.02;nan;100609.44;4997896;28;20274;-74
2022/06/16 06:45:55;;;;;;;2.90;1.90;;;;;;;28.05;nan;100608.91;4990936;28;20026;-74
2022/06/16 06:48:20;;;;;;;2.80;1.80;;;;;;;28.01;nan;100613.22;4990653;28;20396;-74
2022/06/16 06:50:45;;;;;;;3.73;2.10;;;;;;;27.89;nan;100605.34;4990959;28;20041;-74
2022/06/16 06:53:10;;;;;;;5.07;1.87;;;;;;;27.80;nan;100613.13;4990402;28;20828;-74
2022/06/16 06:55:40;;;;;;;3.35;2.00;;;;;;;27.85;nan;100617.81;4990938;28;20274;-74
2022/06/16 06:58:06;;;;;;;2.45;1.58;;;;;;;27.87;nan;100608.31;4990736;28;20411;-74
2022/06/16 07:00:32;;;;;;;2.50;1.90;;;;;;;27.81;nan;100617.47;4991135;28;20038;-74
2022/06/16 07:02:57;;;;;;;4.85;1.98;;;;;;;27.88;nan;100619.97;4990433;28;20049;-74
2022/06/16 07:05:22;;;;;;;2.57;1.50;;;;;;;28.19;nan;100620.91;4990966;28;20121;-74
2022/06/16 07:07:48;;;;;;;2.30;1.40;;;;;;;28.47;nan;100619.66;4990712;28;20281;-74
2022/06/16 07:10:15;;;;;;;4.65;1.90;;;;;;;28.78;nan;100628.69;4990763;28;20514;-74
2022/06/16 07:12:40;;;;;;;2.03;1.38;;;;;;;28.99;nan;100631.44;4990003;28;20041;-74
2022/06/16 07:15:06;;;;;;;2.53;1.40;;;;;;;29.33;nan;100639.06;4992974;28;20034;-74
2022/06/16 07:17:32;;;;;;;2.03;1.23;;;;;;;29.70;nan;100638.75;5000920;28;20030;-74
2022/06/16 07:19:57;;;;;;;2.40;1.42;;;;;;;29.75;nan;100644.19;4991794;28;20503;-74
2022/06/16 07:22:22;;;;;;;4.80;2.00;;;;;;;29.57;nan;100650.19;4990403;28;20026;-74
2022/06/16 07:24:48;;;;;;;2.95;1.85;;;;;;;29.17;nan;100646.44;4990604;28;20042;-74
2022/06/16 07:27:15;;;;;;;3.28;1.65;;;;;;;28.72;nan;100657.00;4990528;28;20037;-74
2022/06/16 07:29:40;;;;;;;4.50;1.80;;;;;;;28.71;nan;100659.97;4990494;28;20030;-73
2022/06/16 07:32:06;;;;;;;3.50;1.50;;;;;;;28.70;nan;100661.91;4989718;28;20092;-74
2022/06/16 07:34:32;;;;;;;2.50;1.60;;;;;;;28.53;nan;100662.13;4990291;28;20269;-74
2022/06/16 07:36:58;;;;;;;3.83;1.60;;;;;;;28.80;nan;100658.38;4998012;28;20454;-74
2022/06/16 07:39:23;;;;;;;2.78;1.40;;;;;;;29.12;nan;100660.03;4989402;28;20414;-72
2022/06/16 07:41:48;;;;;;;2.35;1.50;;;;;;;29.45;nan;100660.56;4989975;28;20503;-72
2022/06/16 07:44:16;;;;;;;3.05;1.55;;;;;;;29.62;nan;100674.72;4996620;28;20070;-72
2022/06/16 07:46:44;;;;;;;2.58;1.60;;;;;;;29.55;nan;100674.19;4990226;28;20066;-72
2022/06/16 07:49:13;;;;;;;2.65;1.65;;;;;;;29.52;nan;100672.81;4971173;28;20039;-72
2022/06/16 07:51:39;;;;;;;2.60;1.90;;;;;;;29.59;nan;100669.81;4990020;28;20037;-72
2022/06/16 07:54:05;;;;;;;2.88;1.60;;;;;;;29.76;nan;100673.06;4989828;28;20031;-72
2022/06/16 07:56:31;;;;;;;3.15;1.58;;;;;;;29.59;nan;100669.81;4990036;28;20038;-72
2022/06/16 07:58:56;;;;;;;3.10;1.60;;;;;;;29.74;nan;100669.81;4990164;28;20031;-72
2022/06/16 08:01:21;;;;;;;4.03;1.33;;;;;;;30.18;nan;100666.41;4989832;28;20361;-72
2022/06/16 08:03:47;;;;;;;3.08;1.60;;;;;;;30.37;nan;100665.81;4989826;28;20041;-73
2022/06/16 08:06:18;;;;;;;5.22;1.55;;;;;;;30.40;nan;100670.69;4997412;28;20034;-73
2022/06/16 08:08:44;;;;;;;2.70;1.50;;;;;;;30.43;nan;100667.38;4989903;28;20042;-72
2022/06/16 08:12:03;;;;;;;2.65;1.45;;;;;;;30.50;nan;100670.63;4989764;28;20031;-72
2022/06/16 08:13:58;;;;;;;2.45;1.67;;;;;;;30.60;nan;100675.19;4989567;28;20054;-72
2022/06/16 08:16:24;;;;;;;3.33;1.45;;;;;;;30.81;nan;100681.34;4994945;28;20388;-73
2022/06/16 08:18:50;;;;;;;3.72;1.40;;;;;;;31.11;nan;100677.63;4994477;28;20034;-72
2022/06/16 08:21:16;;;;;;;3.35;1.75;;;;;;;31.37;nan;100682.84;4989643;28;20163;-72
2022/06/16 08:23:42;;;;;;;3.58;1.70;;;;;;;31.42;nan;100693.78;4989794;28;20038;-72
2022/06/16 08:26:07;;;;;;;3.78;1.65;;;;;;;31.28;nan;100686.19;4989395;28;20030;-73
2022/06/16 08:28:33;;;;;;;3.03;1.40;;;;;;;31.33;nan;100686.16;4989933;28;20067;-73
2022/06/16 08:31:01;;;;;;;4.63;1.58;;;;;;;31.78;nan;100691.50;4990008;28;20030;-73
2022/06/16 08:33:31;;;;;;;2.25;1.13;;;;;;;32.44;nan;100689.06;4990246;28;20039;-72
2022/06/16 08:35:56;;;;;;;2.53;1.60;;;;;;;32.74;nan;100696.09;4972254;28;20094;-72
2022/06/16 08:38:22;;;;;;;2.90;1.43;;;;;;;32.66;nan;100697.56;4988241;28;20058;-73
2022/06/16 08:41:11;;;;;;;3.60;1.70;;;;;;;32.68;nan;100692.63;4990055;28;20269;-71
2022/06/16 08:43:41;;;;;;;4.97;1.50;;;;;;;32.88;nan;100698.88;4991021;28;20062;-73
2022/06/16 08:46:07;;;;;;;3.47;1.75;;;;;;;32.97;nan;100699.84;4989479;28;20057;-73
2022/06/16 08:48:41;;;;;;;3.38;1.63;;;;;;;33.06;nan;100708.22;4989782;28;20068;-73
2022/06/16 08:51:22;;;;;;;4.10;1.60;;;;;;;32.98;nan;100705.00;4992158;28;20045;-72
2022/06/16 08:53:51;;;;;;;2.60;1.60;;;;;;;33.48;nan;100709.97;4993414;28;20282;-72
2022/06/16 08:56:29;;;;;;;3.88;1.50;;;;;;;33.99;nan;100711.81;4992404;28;20166;-72
2022/06/16 08:59:17;;;;;;;4.20;1.65;;;;;;;34.04;nan;100721.88;4993183;28;20034;-73
2022/06/16 09:01:47;;;;;;;5.25;1.70;;;;;;;34.16;nan;100715.91;4993030;28;20556;-73
2022/06/16 09:04:24;;;;;;;2.77;1.60;;;;;;;34.40;nan;100726.66;4991130;28;20038;-74
2022/06/16 09:07:17;;;;;;;3.13;1.63;;;;;;;34.53;nan;100728.53;4993159;28;20128;-73
2022/06/16 09:10:17;;;;;;;3.55;1.60;;;;;;;34.53;nan;100725.78;4987867;28;20038;-73
2022/06/16 09:13:11;;;;;;;3.60;1.55;;;;;;;34.67;nan;100726.59;4992336;28;20503;-74
2022/06/16 09:15:41;;;;;;;3.28;1.50;;;;;;;34.59;nan;100721.81;4994534;28;20117;-74
2022/06/16 09:18:27;;;;;;;4.10;1.63;;;;;;;34.83;nan;100726.28;5001716;28;20045;-73
2022/06/16 09:20:55;;;;;;;2.85;1.55;;;;;;;34.71;nan;100715.81;4992822;28;20054;-74
2022/06/16 09:23:40;;;;;;;2.50;1.50;;;;;;;35.41;nan;100722.66;4992555;28;20046;-74
2022/06/16 09:26:11;;;;;;;3.30;1.60;;;;;;;36.33;nan;100724.88;4975102;28;20035;-74
2022/06/16 09:28:46;;;;;;;2.47;1.42;;;;;;;36.73;nan;100724.78;4993339;28;20034;-74
2022/06/16 09:31:19;;;;;;;3.47;1.50;;;;;;;36.80;nan;100716.84;4994438;28;20132;-74
2022/06/16 09:33:54;;;;;;;3.25;1.33;;;;;;;37.18;nan;100724.47;4998775;28;20578;-73
2022/06/16 09:36:27;;;;;;;2.03;1.20;;;;;;;37.41;nan;100723.13;4995705;28;20041;-73
2022/06/16 09:39:01;;;;;;;2.88;1.42;;;;;;;37.20;nan;100722.19;4997224;28;20037;-73
2022/06/16 09:44:28;;;;;;;3.17;1.60;;;;;;;37.34;nan;100730.28;5000814;28;20161;-73
2022/06/16 09:47:00;;;;;;;3.47;1.50;;;;;;;37.24;nan;100714.09;4993122;28;20034;-73
2022/06/16 09:49:35;;;;;;;4.20;1.50;;;;;;;37.51;nan;100729.41;4994226;28;20042;-74
2022/06/16 09:52:11;;;;;;;3.95;1.50;;;;;;;37.40;nan;100724.28;4994268;28;20098;-72
2022/06/16 09:54:45;;;;;;;5.05;2.10;;;;;;;37.06;nan;100736.16;4994017;28;20232;-73
2022/06/16 09:57:22;;;;;;;5.78;1.55;;;;;;;37.03;nan;100734.03;4991422;28;20027;-73
2022/06/16 09:59:54;;;;;;;3.67;1.60;;;;;;;37.53;nan;100729.94;4998943;28;20037;-73
2022/06/16 10:02:38;;;;;;;2.53;1.45;;;;;;;37.78;nan;100731.81;4990868;28;20407;-74
2022/06/16 10:05:12;;;;;;;3.63;1.40;;;;;;;38.21;nan;100728.03;4990806;28;20050;-73
2022/06/16 10:07:45;;;;;;;2.58;1.40;;;;;;;38.63;nan;100741.91;4991832;28;20545;-73
2022/06/16 10:10:24;;;;;;;2.33;1.33;;;;;;;38.58;nan;100739.34;4991548;28;20575;-73
2022/06/16 10:13:11;;;;;;;4.05;1.45;;;;;;;38.53;nan;100739.56;4991493;28;20038;-74
2022/06/16 10:15:47;;;;;;;2.67;1.48;;;;;;;38.74;nan;100736.81;4994204;28;20054;-73
2022/06/16 10:18:14;;;;;;;4.28;1.63;;;;;;;39.28;nan;100747.06;4983325;28;20035;-74
2022/06/16 10:20:39;;;;;;;4.25;1.60;;;;;;;38.93;nan;100739.13;4992764;28;20035;-74
2022/06/16 10:23:12;;;;;;;2.70;1.55;;;;;;;39.05;nan;100749.44;4992867;28;20041;-74
2022/06/16 10:25:56;;;;;;;3.20;1.50;;;;;;;39.16;nan;100756.13;4992480;28;20037;-73
2022/06/16 10:28:42;;;;;;;3.40;1.50;;;;;;;39.60;nan;100752.97;4991112;28;20527;-74
2022/06/16 10:31:08;;;;;;;3.30;1.70;;;;;;;40.24;nan;100768.16;4991685;28;20031;-74
2022/06/16 10:33:36;;;;;;;3.45;1.60;;;;;;;40.50;nan;100757.50;4991319;28;20180;-74
2022/06/16 10:36:12;;;;;;;2.72;1.38;;;;;;;40.73;nan;100759.78;4991396;28;20154;-73
2022/06/16 10:38:41;;;;;;;3.22;1.50;;;;;;;40.99;nan;100769.63;4997236;28;20050;-73
2022/06/16 10:41:23;;;;;;;3.58;1.70;;;;;;;40.54;nan;100765.91;4990929;28;20464;-74
2022/06/16 10:43:53;;;;;;;3.63;1.60;;;;;;;40.49;nan;100774.47;4998149;28;20258;-74
2022/06/16 10:46:22;;;;;;;1.85;1.40;;;;;;;40.61;nan;100768.91;4990466;28;20061;-74
2022/06/16 10:48:52;;;;;;;3.50;1.73;;;;;;;40.27;nan;100762.72;4991018;28;20037;-73
2022/06/16 10:51:22;;;;;;;;;;;;;;;40.36;nan;100775.63;4991191;28;20039;-73
2022/06/16 10:54:01;;;;;;;4.15;1.50;;;;;;;40.97;nan;100784.66;4973183;28;19918;-73
2022/06/16 10:56:27;;;;;;;3.17;1.52;;;;;;;41.50;nan;100792.91;4982777;28;20030;-74
2022/06/16 10:59:05;;;;;;;2.92;1.25;;;;;;;42.09;nan;100788.47;4990961;28;20114;-74
2022/06/16 11:01:33;;;;;;;2.22;1.33;;;;;;;42.59;nan;100786.06;4990803;28;20085;-73
2022/06/16 11:04:12;;;;;;;4.00;1.70;;;;;;;42.72;nan;100798.69;4990276;28;20122;-74
2022/06/16 11:06:38;;;;;;;;;;;;;;;42.45;nan;100799.66;4984733;28;20033;-74
2022/06/16 11:09:05;;;;;;;4.43;1.42;;;;;;;42.36;nan;100802.59;4990565;28;20033;-74
2022/06/16 11:11:42;;;;;;;2.35;1.27;;;;;;;42.49;nan;100803.34;4990787;28;20037;-74
2022/06/16 11:14:16;;;;;;;3.03;1.55;;;;;;;42.64;nan;100808.03;4990370;28;20705;-74
2022/06/16 11:16:49;;;;;;;2.95;1.40;;;;;;;42.17;nan;100808.94;4999219;28;20042;-74
2022/06/16 11:19:28;;;;;;;2.42;1.20;;;;;;;42.08;nan;100799.97;4992308;28;20030;-73
2022/06/16 11:21:54;;;;;;;4.38;1.35;;;;;;;42.00;nan;100798.97;4991281;28;20030;-74
2022/06/16 11:24:28;;;;;;;3.33;1.42;;;;;;;42.08;nan;100800.78;4989612;28;20046;-74
2022/06/16 11:27:11;;;;;;;3.15;1.50;;;;;;;42.43;nan;100814.75;4990568;28;20031;-74
2022/06/16 11:29:37;;;;;;;2.38;1.50;;;;;;;42.67;nan;100812.06;4990865;28;20038;-74
2022/06/16 11:32:24;;;;;;;4.03;1.40;;;;;;;42.30;nan;100810.41;4989840;28;20030;-73
2022/06/16 11:34:50;;;;;;;3.97;1.85;;;;;;;41.47;nan;100813.03;4990571;28;20061;-74
2022/06/16 11:37:37;;;;;;;2.38;1.27;;;;;;;41.23;nan;100816.72;4998386;28;20030;-74
2022/06/16 11:40:28;;;;;;;4.95;1.48;;;;;;;42.20;nan;100813.75;4991045;28;20034;-74
2022/06/16 11:43:06;;;;;;;3.67;1.50;;;;;;;42.03;nan;100819.69;5000036;28;20034;-74
2022/06/16 11:45:55;;;;;;;2.78;1.60;;;;;;;42.04;nan;100805.41;4983447;28;20041;-74
2022/06/16 11:48:26;;;;;;;5.20;1.60;;;;;;;42.17;nan;100789.47;4989633;28;20084;-73
2022/06/16 11:51:00;;;;;;;;;;;;;;;42.60;nan;100796.84;4991062;28;20042;-74
2022/06/16 11:53:38;;;;;;;3.17;1.40;;;;;;;42.74;nan;100796.34;4989813;28;19922;-74
2022/06/16 11:56:26;;;;;;;2.17;1.30;;;;;;;42.22;nan;100794.75;4990185;28;20030;-73
2022/06/16 11:59:04;;;;;;;3.40;1.40;;;;;;;42.79;nan;100784.97;4990210;28;20058;-74
2022/06/16 12:01:44;;;;;;;2.60;1.30;;;;;;;43.78;nan;100797.63;4972508;28;20037;-73
2022/06/16 12:04:09;;;;;;;2.92;1.38;;;;;;;43.74;nan;100791.16;4989741;28;20503;-73
2022/06/16 12:07:03;;;;;;;4.03;1.60;;;;;;;43.12;nan;100794.75;4990693;28;20078;-74
2022/06/16 12:09:40;;;;;;;2.67;1.40;;;;;;;43.25;nan;100790.66;4972881;28;20122;-74
2022/06/16 12:12:18;;;;;;;1.83;1.25;;;;;;;43.27;nan;100787.53;4989437;28;20176;-74
2022/06/16 12:14:56;;;;;;;1.70;1.25;;;;;;;43.42;nan;100785.81;4992001;28;20608;-73
2022/06/16 12:17:28;;;;;;;2.58;1.30;;;;;;;43.68;nan;100797.06;4998167;28;20533;-74
2022/06/16 12:20:20;;;;;;;2.60;1.30;;;;;;;43.66;nan;100782.69;4990658;28;20273;-74
2022/06/16 12:22:58;;;;;;;1.73;1.00;;;;;;;43.76;nan;100786.84;4990071;28;20121;-74